Time;durP1;ratioP1;P1;durP2;ratioP2;P2;SDS_P1;SDS_P2;PMS_P1;PMS_P2;Temp;Humidity;BMP_temperature;BMP_pressure;BME280_temperature;BME280_humidity;BME280_pressure;Samples;Min_cycle;Max_cycle;Signal;HPM_P1;HPM_P2
2024/02/10 00:01:46;;;;;;;9.07;5.67;;;11.80;99.90;;;;;;5054240;28;21231;-27
2024/02/10 00:04:21;;;;;;;8.87;5.77;;;11.80;99.90;;;;;;5051062;28;20680;-26
2024/02/10 00:06:49;;;;;;;7.83;5.90;;;11.80;99.90;;;;;;5048546;28;20447;-26
2024/02/10 00:09:18;;;;;;;7.70;5.50;;;11.80;99.90;;;;;;5031956;28;21016;-26
2024/02/10 00:11:44;;;;;;;6.53;5.67;;;11.80;99.90;;;;;;5028470;28;20458;-26
2024/02/10 00:14:13;;;;;;;8.37;5.30;;;11.80;99.90;;;;;;5036718;28;20478;-26
2024/02/10 00:16:39;;;;;;;6.60;4.43;;;11.80;99.90;;;;;;5033413;28;20919;-25
2024/02/10 00:19:09;;;;;;;6.43;5.20;;;11.80;99.90;;;;;;5046204;28;20466;-26
2024/02/10 00:21:36;;;;;;;6.87;4.77;;;11.80;99.90;;;;;;5016636;28;20880;-27
2024/02/10 00:24:04;;;;;;;6.83;5.03;;;11.80;99.90;;;;;;5038111;28;20464;-26
2024/02/10 00:26:33;;;;;;;7.10;4.50;;;11.80;99.90;;;;;;5036556;28;21301;-26
2024/02/10 00:28:59;;;;;;;6.30;5.20;;;11.80;99.90;;;;;;5036848;28;20438;-26
2024/02/10 00:31:25;;;;;;;9.03;5.43;;;11.80;99.90;;;;;;5015206;28;20550;-26
2024/02/10 00:33:51;;;;;;;5.60;4.93;;;11.80;99.90;;;;;;5030503;28;20466;-26
2024/02/10 00:36:18;;;;;;;5.57;4.33;;;11.80;99.90;;;;;;5057549;28;20483;-26
2024/02/10 00:38:47;;;;;;;5.57;4.30;;;11.70;99.90;;;;;;5043695;28;20467;-26
2024/02/10 00:41:13;;;;;;;6.83;4.63;;;11.70;99.90;;;;;;5047030;28;20431;-26
2024/02/10 00:43:42;;;;;;;6.03;4.97;;;11.70;99.90;;;;;;5017246;28;20419;-26
2024/02/10 00:46:15;;;;;;;6.70;4.93;;;11.80;99.90;;;;;;5049506;28;20537;-27
2024/02/10 00:48:48;;;;;;;5.37;4.30;;;11.80;99.90;;;;;;5050991;28;20431;-27
2024/02/10 00:51:14;;;;;;;6.87;4.33;;;11.80;99.90;;;;;;5051567;28;20478;-27
2024/02/10 00:53:40;;;;;;;7.10;4.83;;;11.70;99.90;;;;;;5011145;28;20655;-26
2024/02/10 00:56:10;;;;;;;5.00;4.27;;;11.80;99.90;;;;;;5027337;28;20854;-26
2024/02/10 00:58:40;;;;;;;4.97;4.23;;;11.70;99.90;;;;;;5035563;28;20474;-26
2024/02/10 01:01:12;;;;;;;6.00;4.10;;;11.70;99.90;;;;;;5054176;28;20884;-26
2024/02/10 01:03:45;;;;;;;5.93;4.03;;;11.70;99.90;;;;;;5028090;28;20599;-26
2024/02/10 01:06:12;;;;;;;6.07;4.00;;;11.70;99.90;;;;;;5052992;28;20415;-26
2024/02/10 01:08:50;;;;;;;5.60;3.73;;;11.70;99.90;;;;;;5038347;28;20983;-26
2024/02/10 01:11:17;;;;;;;6.17;4.30;;;11.70;99.90;;;;;;5045357;28;20673;-27
2024/02/10 01:13:49;;;;;;;8.80;5.20;;;11.70;99.90;;;;;;5014730;28;20996;-26
2024/02/10 01:16:17;;;;;;;10.17;4.27;;;11.70;99.90;;;;;;5052447;28;20448;-26
2024/02/10 01:18:44;;;;;;;4.13;3.57;;;11.70;99.90;;;;;;5041662;28;20512;-26
2024/02/10 01:21:11;;;;;;;6.03;3.87;;;11.70;99.90;;;;;;5051105;28;20430;-27
2024/02/10 01:23:42;;;;;;;4.80;3.60;;;11.70;99.90;;;;;;5029697;28;20435;-26
2024/02/10 01:26:12;;;;;;;5.53;4.17;;;11.70;99.90;;;;;;5051071;28;20973;-31
2024/02/10 01:28:44;;;;;;;5.60;4.40;;;11.70;99.90;;;;;;5040742;28;20437;-26
2024/02/10 01:31:18;;;;;;;7.20;4.20;;;11.70;99.90;;;;;;5050411;28;20445;-26
2024/02/10 01:33:44;;;;;;;6.23;4.07;;;11.70;99.90;;;;;;5049873;28;20476;-26
2024/02/10 01:36:10;;;;;;;4.20;3.80;;;11.70;99.90;;;;;;5037148;28;20440;-27
2024/02/10 01:38:46;;;;;;;4.50;4.10;;;11.70;99.90;;;;;;5049119;28;20458;-26
2024/02/10 01:41:15;;;;;;;6.07;3.93;;;11.70;99.90;;;;;;5033749;28;20216;-26
2024/02/10 01:43:44;;;;;;;5.03;3.80;;;11.70;99.90;;;;;;5045246;28;20430;-27
2024/02/10 01:46:17;;;;;;;5.70;4.83;;;11.70;99.90;;;;;;5055199;28;20489;-26
2024/02/10 01:48:44;;;;;;;4.93;4.00;;;11.70;99.90;;;;;;5035808;28;21291;-26
2024/02/10 01:51:12;;;;;;;6.00;4.23;;;11.70;99.90;;;;;;5033432;28;20422;-27
2024/02/10 01:53:41;;;;;;;5.00;4.43;;;11.70;99.90;;;;;;5052495;28;20441;-26
2024/02/10 01:56:11;;;;;;;6.13;4.93;;;11.70;99.90;;;;;;5038677;28;20420;-26
2024/02/10 01:58:41;;;;;;;5.03;4.23;;;11.70;99.90;;;;;;5052961;28;20540;-27
2024/02/10 02:01:16;;;;;;;4.83;4.07;;;11.70;99.90;;;;;;5044050;28;20415;-25
2024/02/10 02:03:45;;;;;;;5.00;4.20;;;11.70;99.90;;;;;;5052021;28;20422;-26
2024/02/10 02:06:17;;;;;;;5.30;4.80;;;11.70;99.90;;;;;;5034447;28;20962;-27
2024/02/10 02:08:51;;;;;;;6.77;4.20;;;11.70;99.90;;;;;;5017433;28;20438;-27
2024/02/10 02:11:17;;;;;;;6.70;4.90;;;11.70;99.90;;;;;;5043052;28;20441;-25
2024/02/10 02:13:43;;;;;;;5.37;4.03;;;11.70;99.90;;;;;;5052228;28;20438;-27
2024/02/10 02:16:11;;;;;;;6.43;4.57;;;11.70;99.90;;;;;;5054046;28;20447;-27
2024/02/10 02:18:39;;;;;;;6.60;4.70;;;11.70;99.90;;;;;;5055329;28;20500;-27
2024/02/10 02:21:07;;;;;;;5.80;4.87;;;11.70;99.90;;;;;;5030446;28;20415;-27
2024/02/10 02:23:34;;;;;;;4.90;4.50;;;11.70;99.90;;;;;;5033013;28;20439;-27
2024/02/10 02:26:00;;;;;;;6.00;5.13;;;11.70;99.90;;;;;;5026644;28;20450;-26
2024/02/10 02:28:26;;;;;;;6.93;4.43;;;11.70;99.90;;;;;;5048068;28;20426;-27
2024/02/10 02:30:52;;;;;;;5.43;4.43;;;11.70;99.90;;;;;;5048388;28;20992;-26
2024/02/10 02:33:20;;;;;;;5.13;4.63;;;11.70;99.90;;;;;;5038314;28;20469;-26
2024/02/10 02:35:50;;;;;;;7.77;4.73;;;11.70;99.90;;;;;;5015413;28;20552;-26
2024/02/10 02:38:19;;;;;;;7.97;4.33;;;11.70;99.90;;;;;;5050491;28;20473;-26
2024/02/10 02:40:47;;;;;;;5.17;4.10;;;11.70;99.90;;;;;;5047918;28;20433;-26
2024/02/10 02:43:13;;;;;;;5.93;4.23;;;11.70;99.90;;;;;;5046064;28;20541;-26
2024/02/10 02:45:42;;;;;;;5.63;4.60;;;11.70;99.90;;;;;;5032123;28;20545;-26
2024/02/10 02:48:10;;;;;;;5.53;4.77;;;11.70;99.90;;;;;;5032282;28;20466;-27
2024/02/10 02:50:38;;;;;;;5.43;4.70;;;11.70;99.90;;;;;;5031315;28;20445;-27
2024/02/10 02:53:05;;;;;;;5.73;4.47;;;11.70;99.90;;;;;;5044709;28;20869;-27
2024/02/10 02:55:31;;;;;;;5.03;4.50;;;11.70;99.90;;;;;;5018929;28;20469;-26
2024/02/10 02:58:02;;;;;;;7.00;4.37;;;11.70;99.90;;;;;;5044979;28;20503;-26
2024/02/10 03:00:29;;;;;;;6.23;4.50;;;11.70;99.90;;;;;;5030411;28;20469;-26
2024/02/10 03:02:56;;;;;;;5.60;4.10;;;11.70;99.90;;;;;;5029347;28;20833;-26
2024/02/10 03:05:28;;;;;;;8.90;4.10;;;11.70;99.90;;;;;;5035111;28;20441;-26
2024/02/10 03:07:54;;;;;;;4.73;3.97;;;11.70;99.90;;;;;;5051807;28;20531;-27
2024/02/10 03:10:22;;;;;;;4.73;4.23;;;11.70;99.90;;;;;;5049188;28;20476;-26
2024/02/10 03:12:48;;;;;;;5.50;4.23;;;11.70;99.90;;;;;;5048023;28;20458;-26
2024/02/10 03:15:18;;;;;;;4.23;3.73;;;11.70;99.90;;;;;;5048860;28;20449;-27
2024/02/10 03:17:49;;;;;;;4.13;3.73;;;11.70;99.90;;;;;;5032909;28;20478;-26
2024/02/10 03:20:21;;;;;;;6.13;4.30;;;11.70;99.90;;;;;;5053004;28;20419;-26
2024/02/10 03:23:02;;;;;;;7.40;4.40;;;11.70;99.90;;;;;;5048945;28;20443;-26
2024/02/10 03:25:29;;;;;;;5.60;4.40;;;11.70;99.90;;;;;;5057377;28;20426;-26
2024/02/10 03:27:55;;;;;;;5.33;3.63;;;11.70;99.90;;;;;;5028444;28;20450;-26
2024/02/10 03:30:24;;;;;;;4.47;4.07;;;11.70;99.90;;;;;;5015263;28;20463;-26
2024/02/10 03:32:53;;;;;;;4.67;3.87;;;11.70;99.90;;;;;;5028033;28;20602;-26
2024/02/10 03:35:24;;;;;;;4.67;3.73;;;11.70;99.90;;;;;;5050104;28;21128;-26
2024/02/10 03:37:53;;;;;;;4.80;3.50;;;11.70;99.90;;;;;;5031286;28;20582;-27
2024/02/10 03:40:19;;;;;;;4.73;3.30;;;11.70;99.90;;;;;;5032405;28;20652;-26
2024/02/10 03:42:47;;;;;;;4.30;3.57;;;11.70;99.90;;;;;;5047524;28;20446;-26
2024/02/10 03:45:15;;;;;;;4.17;3.30;;;11.70;99.90;;;;;;5052947;28;20945;-26
2024/02/10 03:47:44;;;;;;;4.47;4.07;;;11.70;99.90;;;;;;5027215;28;20435;-26
2024/02/10 03:50:14;;;;;;;3.73;3.43;;;11.70;99.90;;;;;;5047651;28;20487;-26
2024/02/10 03:52:41;;;;;;;4.27;3.70;;;11.70;99.90;;;;;;5051226;28;20443;-26
2024/02/10 03:55:08;;;;;;;4.93;3.17;;;11.70;99.90;;;;;;5031065;28;20446;-27
2024/02/10 03:57:37;;;;;;;3.60;3.30;;;11.60;99.90;;;;;;5044859;28;21011;-26
2024/02/10 04:00:20;;;;;;;4.20;3.20;;;11.60;99.90;;;;;;5029901;28;20809;-26
2024/02/10 04:02:48;;;;;;;4.50;3.60;;;11.60;99.90;;;;;;5061359;22;20439;-72
2024/02/10 04:05:17;;;;;;;3.57;3.27;;;11.60;99.90;;;;;;4996809;28;20416;-72
2024/02/10 04:07:49;;;;;;;3.53;3.23;;;11.60;99.90;;;;;;5005170;28;20814;-72
2024/02/10 04:10:18;;;;;;;3.43;3.13;;;11.70;99.90;;;;;;4968601;28;20831;-72
2024/02/10 04:12:47;;;;;;;3.03;2.80;;;11.60;99.90;;;;;;4976716;28;20428;-72
2024/02/10 04:15:13;;;;;;;4.80;3.23;;;11.60;99.90;;;;;;4973434;28;21355;-71
2024/02/10 04:17:48;;;;;;;3.87;2.90;;;11.70;99.90;;;;;;4984843;28;21053;-72
2024/02/10 04:20:19;;;;;;;3.30;3.00;;;11.60;99.90;;;;;;4960633;28;20916;-72
2024/02/10 04:22:46;;;;;;;3.77;3.40;;;11.60;99.90;;;;;;4940561;28;20480;-72
2024/02/10 04:25:14;;;;;;;3.40;3.10;;;11.60;99.90;;;;;;4980898;28;20440;-72
2024/02/10 04:27:42;;;;;;;7.93;2.87;;;11.60;99.90;;;;;;4981096;28;20467;-72
2024/02/10 04:30:11;;;;;;;2.80;2.60;;;11.60;99.90;;;;;;4967691;28;20456;-72
2024/02/10 04:32:47;;;;;;;2.80;2.30;;;11.60;99.90;;;;;;4994780;28;20429;-72
2024/02/10 04:35:14;;;;;;;3.20;2.90;;;11.60;99.90;;;;;;4960769;28;20929;-72
2024/02/10 04:37:53;;;;;;;2.70;2.43;;;11.60;99.90;;;;;;5001625;28;20472;-72
2024/02/10 04:40:23;;;;;;;5.27;3.10;;;11.60;99.90;;;;;;4968144;28;21002;-72
2024/02/10 04:42:52;;;;;;;4.50;3.17;;;11.60;99.90;;;;;;4994664;28;20487;-72
2024/02/10 04:45:30;;;;;;;2.70;2.40;;;11.60;99.90;;;;;;4999411;28;20527;-72
2024/02/10 04:47:59;;;;;;;3.43;2.70;;;11.60;99.90;;;;;;4984451;28;20495;-72
2024/02/10 04:50:28;;;;;;;3.50;2.60;;;11.60;99.90;;;;;;4966537;28;20487;-72
2024/02/10 04:52:55;;;;;;;2.47;2.27;;;11.60;99.90;;;;;;4980750;28;20491;-72
2024/02/10 04:55:23;;;;;;;2.60;2.27;;;11.60;99.90;;;;;;4967248;28;20436;-72
2024/02/10 04:57:53;;;;;;;2.53;2.33;;;11.60;99.90;;;;;;4998718;28;20808;-72
2024/02/10 05:00:20;;;;;;;2.60;2.40;;;11.60;99.90;;;;;;4977694;28;20445;-71
2024/02/10 05:02:53;;;;;;;2.73;2.50;;;11.60;99.90;;;;;;4956303;28;20491;-71
2024/02/10 05:05:22;;;;;;;3.50;2.67;;;11.60;99.90;;;;;;5007097;28;20432;-72
2024/02/10 05:07:54;;;;;;;2.70;2.50;;;11.50;99.90;;;;;;4991733;28;20450;-71
2024/02/10 05:10:23;;;;;;;5.03;2.80;;;11.60;99.90;;;;;;4980203;28;20468;-72
2024/02/10 05:12:55;;;;;;;2.83;2.53;;;11.60;99.90;;;;;;4956675;28;21401;-71
2024/02/10 05:15:22;;;;;;;4.10;2.10;;;11.60;99.90;;;;;;5009043;28;20435;-71
2024/02/10 05:17:51;;;;;;;2.57;2.37;;;11.50;99.90;;;;;;4959774;28;20465;-72
2024/02/10 05:20:22;;;;;;;3.30;2.20;;;11.50;99.90;;;;;;4979772;28;20450;-71
2024/02/10 05:22:59;;;;;;;3.60;2.10;;;11.60;99.90;;;;;;4983791;28;20429;-71
2024/02/10 05:25:32;;;;;;;2.53;2.20;;;11.60;99.90;;;;;;4982175;28;20588;-72
2024/02/10 05:28:00;;;;;;;2.30;2.10;;;11.50;99.90;;;;;;4951291;28;20469;-72
2024/02/10 05:30:30;;;;;;;2.70;2.27;;;11.50;99.90;;;;;;4989864;28;20474;-72
2024/02/10 05:33:04;;;;;;;2.90;2.30;;;11.50;99.90;;;;;;4959679;28;20448;-72
2024/02/10 05:35:33;;;;;;;4.13;2.43;;;11.60;99.90;;;;;;4951052;28;21227;-72
2024/02/10 05:38:02;;;;;;;3.77;2.50;;;11.50;99.90;;;;;;4961867;28;20484;-72
2024/02/10 05:40:31;;;;;;;2.90;2.30;;;11.50;99.90;;;;;;4946949;28;20884;-72
2024/02/10 05:42:58;;;;;;;2.70;2.03;;;11.50;99.90;;;;;;4977244;28;20947;-71
2024/02/10 05:45:25;;;;;;;3.40;2.17;;;11.50;99.90;;;;;;5003979;28;20429;-71
2024/02/10 05:47:52;;;;;;;2.83;2.10;;;11.50;99.90;;;;;;4948001;28;20453;-72
2024/02/10 05:50:22;;;;;;;2.13;1.93;;;11.50;99.90;;;;;;4982910;28;20471;-72
2024/02/10 05:52:52;;;;;;;2.93;2.63;;;11.50;99.90;;;;;;4950600;28;20448;-72
2024/02/10 05:55:25;;;;;;;2.90;2.43;;;11.50;99.90;;;;;;4964039;28;20449;-72
2024/02/10 05:58:01;;;;;;;2.60;2.40;;;11.50;99.90;;;;;;4960219;28;20469;-72
2024/02/10 06:00:30;;;;;;;2.43;2.23;;;11.50;99.90;;;;;;4969231;28;20744;-72
2024/02/10 06:02:56;;;;;;;2.60;2.40;;;11.50;99.90;;;;;;4975743;28;20445;-72
2024/02/10 06:05:23;;;;;;;3.40;2.30;;;11.50;99.90;;;;;;4980832;28;20457;-71
2024/02/10 06:07:49;;;;;;;2.43;2.23;;;11.50;99.90;;;;;;4986613;28;20454;-71
2024/02/10 06:10:16;;;;;;;3.93;3.10;;;11.50;99.90;;;;;;4983995;28;20447;-72
2024/02/10 06:12:46;;;;;;;6.40;2.37;;;11.50;99.90;;;;;;5020961;28;20428;-72
2024/02/10 06:15:13;;;;;;;3.60;1.93;;;11.50;99.90;;;;;;4988903;28;20496;-72
2024/02/10 06:17:43;;;;;;;3.40;2.13;;;11.50;99.90;;;;;;4975654;28;20468;-72
2024/02/10 06:20:22;;;;;;;2.23;2.00;;;11.50;99.90;;;;;;4986178;28;20451;-72
2024/02/10 06:22:52;;;;;;;2.60;2.30;;;11.50;99.90;;;;;;4958413;28;20441;-71
2024/02/10 06:25:24;;;;;;;3.60;2.40;;;11.50;99.90;;;;;;4966448;28;20943;-72
2024/02/10 06:27:54;;;;;;;3.93;2.27;;;11.40;99.90;;;;;;5003708;28;20459;-71
2024/02/10 06:30:22;;;;;;;3.17;2.40;;;11.50;99.90;;;;;;4960161;28;20437;-72
2024/02/10 06:32:49;;;;;;;2.57;2.37;;;11.40;99.90;;;;;;4949903;28;20555;-72
2024/02/10 06:35:19;;;;;;;2.23;2.03;;;11.50;99.90;;;;;;4978140;28;20436;-71
2024/02/10 06:37:47;;;;;;;2.40;2.10;;;11.40;99.90;;;;;;4979944;28;20476;-71
2024/02/10 06:40:14;;;;;;;2.37;2.07;;;11.50;99.90;;;;;;4962783;28;20956;-72
2024/02/10 06:42:42;;;;;;;2.57;2.37;;;11.40;99.90;;;;;;4978274;28;20744;-72
2024/02/10 06:45:13;;;;;;;2.07;1.90;;;11.40;99.90;;;;;;4986402;28;20445;-71
2024/02/10 06:47:40;;;;;;;2.40;2.20;;;11.40;99.90;;;;;;4963879;28;20499;-72
2024/02/10 06:50:13;;;;;;;2.47;2.13;;;11.40;99.90;;;;;;5001477;28;20454;-72
2024/02/10 06:52:47;;;;;;;2.33;2.13;;;11.40;99.90;;;;;;4978923;28;20424;-73
2024/02/10 06:55:13;;;;;;;2.20;2.00;;;11.40;99.90;;;;;;5023083;28;20430;-72
2024/02/10 06:57:48;;;;;;;3.33;2.57;;;11.40;99.90;;;;;;5022474;28;20546;-72
2024/02/10 07:00:14;;;;;;;4.60;2.30;;;11.40;99.90;;;;;;5003963;28;20527;-72
2024/02/10 07:02:42;;;;;;;3.13;2.40;;;11.40;99.90;;;;;;4986802;28;20518;-71
2024/02/10 07:05:15;;;;;;;2.30;1.97;;;11.40;99.90;;;;;;4987039;28;20447;-73
2024/02/10 07:07:48;;;;;;;2.30;2.10;;;11.40;99.90;;;;;;5002940;28;20436;-72
2024/02/10 07:10:24;;;;;;;3.00;2.27;;;11.40;99.90;;;;;;5003409;28;21006;-72
2024/02/10 07:12:53;;;;;;;2.90;2.60;;;11.40;99.90;;;;;;5022143;28;20514;-72
2024/02/10 07:15:21;;;;;;;2.00;1.80;;;11.40;99.90;;;;;;5004478;28;20462;-73
2024/02/10 07:17:50;;;;;;;3.13;2.30;;;11.40;99.90;;;;;;5003072;28;21102;-73
2024/02/10 07:20:20;;;;;;;2.60;2.40;;;11.40;99.90;;;;;;5021089;28;20432;-72
2024/02/10 07:23:00;;;;;;;2.40;2.20;;;11.40;99.90;;;;;;4988084;28;20431;-71
2024/02/10 07:25:27;;;;;;;5.50;2.50;;;11.40;99.90;;;;;;4971669;28;20446;-71
2024/02/10 07:28:01;;;;;;;3.23;2.07;;;11.30;99.90;;;;;;5003748;28;21002;-72
2024/02/10 07:30:28;;;;;;;2.80;2.43;;;11.30;99.90;;;;;;5003877;28;21017;-72
2024/02/10 07:32:56;;;;;;;3.80;2.30;;;11.30;99.90;;;;;;4991689;28;20507;-75
2024/02/10 07:35:25;;;;;;;2.40;2.20;;;11.30;99.90;;;;;;4964306;28;20552;-74
2024/02/10 07:37:53;;;;;;;2.70;2.30;;;11.30;99.90;;;;;;4968121;28;20476;-70
2024/02/10 07:40:22;;;;;;;2.57;2.37;;;11.30;99.90;;;;;;4975875;28;21018;-70
2024/02/10 07:42:52;;;;;;;3.00;2.40;;;11.30;99.90;;;;;;4948352;28;20483;-71
2024/02/10 07:45:19;;;;;;;2.90;2.57;;;11.40;99.90;;;;;;4991194;28;20419;-70
2024/02/10 07:47:46;;;;;;;2.10;1.93;;;11.30;99.90;;;;;;5019986;28;21287;-70
2024/02/10 07:50:14;;;;;;;3.47;2.43;;;11.30;99.90;;;;;;4966200;28;20987;-70
2024/02/10 07:52:42;;;;;;;2.87;2.47;;;11.40;99.90;;;;;;4971201;28;20576;-70
2024/02/10 07:55:12;;;;;;;2.57;2.37;;;11.30;99.90;;;;;;5015700;28;20431;-70
2024/02/10 07:57:41;;;;;;;3.00;2.13;;;11.30;99.90;;;;;;4976520;28;20477;-70
2024/02/10 08:00:09;;;;;;;3.63;2.50;;;11.30;99.90;;;;;;4967401;28;20432;-70
2024/02/10 08:02:39;;;;;;;2.30;2.10;;;11.30;99.90;;;;;;4951230;28;21247;-71
2024/02/10 08:05:06;;;;;;;4.10;2.43;;;11.30;99.90;;;;;;4980159;28;20456;-68
2024/02/10 08:07:34;;;;;;;2.83;2.57;;;11.30;99.90;;;;;;5012632;28;20519;-70
2024/02/10 08:10:00;;;;;;;2.23;2.03;;;11.30;99.90;;;;;;4978661;28;20426;-70
2024/02/10 08:12:27;;;;;;;2.17;1.90;;;11.30;99.90;;;;;;4970113;28;20424;-72
2024/02/10 08:14:54;;;;;;;2.20;2.00;;;11.30;99.90;;;;;;4999020;28;20486;-71
2024/02/10 08:17:26;;;;;;;2.50;2.30;;;11.30;99.90;;;;;;4982606;28;20542;-70
2024/02/10 08:19:57;;;;;;;2.30;2.10;;;11.30;99.90;;;;;;5000682;28;20432;-71
2024/02/10 08:22:25;;;;;;;2.80;2.33;;;11.30;99.90;;;;;;4982577;28;20428;-71
2024/02/10 08:25:00;;;;;;;2.67;2.33;;;11.30;99.90;;;;;;4983453;28;20431;-71
2024/02/10 08:27:28;;;;;;;2.40;2.20;;;11.30;99.90;;;;;;4983275;28;20447;-71
2024/02/10 08:29:58;;;;;;;3.37;2.70;;;11.30;99.90;;;;;;4983680;28;20448;-69
2024/02/10 08:32:24;;;;;;;2.67;2.47;;;11.30;99.90;;;;;;5000486;28;20428;-69
2024/02/10 08:34:51;;;;;;;2.17;2.00;;;11.30;99.90;;;;;;4961453;28;20531;-69
2024/02/10 08:37:22;;;;;;;2.70;2.50;;;11.40;99.90;;;;;;4987146;28;21268;-69
2024/02/10 08:39:48;;;;;;;11.53;4.10;;;11.30;99.90;;;;;;4987114;28;20433;-69
2024/02/10 08:42:15;;;;;;;3.10;2.40;;;11.30;99.90;;;;;;4960755;28;20440;-70
2024/02/10 08:44:46;;;;;;;2.43;2.23;;;11.40;99.90;;;;;;4970158;28;20979;-69
2024/02/10 08:47:18;;;;;;;3.07;2.07;;;11.30;99.90;;;;;;4965621;28;20821;-69
2024/02/10 08:49:45;;;;;;;2.77;2.37;;;11.30;99.90;;;;;;4977118;28;20872;-69
2024/02/10 08:52:16;;;;;;;2.67;2.47;;;11.30;99.90;;;;;;4952933;28;20902;-69
2024/02/10 08:54:43;;;;;;;2.80;2.57;;;11.40;99.90;;;;;;4993958;28;20418;-70
2024/02/10 08:57:09;;;;;;;2.27;2.07;;;11.30;99.90;;;;;;4997418;28;20436;-70
2024/02/10 08:59:40;;;;;;;4.80;2.57;;;11.40;99.90;;;;;;4974494;28;20936;-69
2024/02/10 09:02:09;;;;;;;2.20;2.00;;;11.40;99.90;;;;;;4992907;28;21029;-69
2024/02/10 09:04:40;;;;;;;2.17;1.83;;;11.40;99.90;;;;;;4981238;28;20441;-70
2024/02/10 09:07:07;;;;;;;2.50;2.30;;;11.40;99.90;;;;;;4973962;28;20501;-69
2024/02/10 09:09:36;;;;;;;2.70;2.30;;;11.40;99.90;;;;;;4997860;28;20431;-69
2024/02/10 09:12:03;;;;;;;2.50;2.30;;;11.40;99.90;;;;;;4965349;28;20919;-70
2024/02/10 09:14:30;;;;;;;2.67;2.47;;;11.40;99.90;;;;;;4975160;28;20900;-69
2024/02/10 09:16:56;;;;;;;3.47;2.30;;;11.40;99.90;;;;;;4976813;28;20446;-69
2024/02/10 09:19:22;;;;;;;5.13;2.70;;;11.40;99.90;;;;;;4993490;28;21190;-71
2024/02/10 09:21:55;;;;;;;2.87;2.20;;;11.40;99.90;;;;;;4976775;28;20844;-72
2024/02/10 09:24:31;;;;;;;2.60;2.40;;;11.40;99.90;;;;;;4985331;28;20973;-74
2024/02/10 09:26:57;;;;;;;2.40;2.20;;;11.40;99.90;;;;;;4941584;28;20544;-72
2024/02/10 09:29:23;;;;;;;2.83;2.07;;;11.50;99.90;;;;;;5003082;28;20527;-72
2024/02/10 09:31:52;;;;;;;2.83;2.40;;;11.50;99.90;;;;;;4984541;28;20470;-72
2024/02/10 09:34:20;;;;;;;6.70;2.67;;;11.50;99.90;;;;;;4985326;28;21225;-71
2024/02/10 09:36:48;;;;;;;3.50;2.20;;;11.50;99.90;;;;;;4961599;28;21104;-72
2024/02/10 09:39:17;;;;;;;2.93;2.70;;;11.50;99.90;;;;;;4968762;28;20507;-72
2024/02/10 09:41:43;;;;;;;2.47;2.03;;;11.50;99.90;;;;;;4986864;28;20874;-72
2024/02/10 09:44:15;;;;;;;2.20;2.00;;;11.50;99.90;;;;;;4979662;28;20479;-70
2024/02/10 09:46:50;;;;;;;2.30;2.10;;;11.50;99.90;;;;;;4966056;28;20495;-72
2024/02/10 09:49:19;;;;;;;2.30;1.80;;;11.50;99.90;;;;;;4965637;28;20504;-73
2024/02/10 09:51:45;;;;;;;3.23;2.07;;;11.60;99.90;;;;;;4983940;28;20424;-72
2024/02/10 09:54:17;;;;;;;32.87;4.20;;;11.50;99.90;;;;;;4983701;28;20441;-72
2024/02/10 09:56:44;;;;;;;6.73;2.10;;;11.60;99.90;;;;;;4950925;28;20464;-71
2024/02/10 09:59:24;;;;;;;4.73;2.40;;;11.70;99.90;;;;;;4977636;28;21030;-74
2024/02/10 10:01:51;;;;;;;4.27;2.20;;;11.80;99.90;;;;;;4977065;28;20429;-74
2024/02/10 10:04:19;;;;;;;11.97;4.23;;;11.80;99.90;;;;;;4997387;28;20464;-73
2024/02/10 10:06:46;;;;;;;30.97;3.70;;;11.90;99.90;;;;;;4966484;28;20533;-73
2024/02/10 10:09:18;;;;;;;28.00;4.17;;;12.10;99.90;;;;;;4984209;28;21032;-74
2024/02/10 10:11:45;;;;;;;13.60;4.00;;;12.20;99.90;;;;;;4946750;28;20503;-73
2024/02/10 10:14:15;;;;;;;7.77;2.70;;;12.30;99.90;;;;;;4993389;28;20429;-71
2024/02/10 10:17:03;;;;;;;8.33;3.00;;;12.30;99.90;;;;;;4960748;28;20456;-73
2024/02/10 10:19:32;;;;;;;18.43;2.83;;;12.30;99.90;;;;;;5004040;28;20444;-74
2024/02/10 10:21:58;;;;;;;10.33;2.97;;;12.30;99.90;;;;;;4994599;28;21172;-70
2024/02/10 10:24:27;;;;;;;13.20;3.20;;;12.30;99.90;;;;;;4982995;28;21598;-73
2024/02/10 10:26:53;;;;;;;11.20;2.57;;;12.30;99.90;;;;;;4973808;28;20552;-76
2024/02/10 10:29:21;;;;;;;9.07;2.80;;;12.30;99.90;;;;;;4967956;28;20417;-79
2024/02/10 10:31:53;;;;;;;14.93;2.40;;;12.30;99.90;;;;;;4986527;28;20418;-74
2024/02/10 10:34:20;;;;;;;6.70;2.23;;;12.30;99.90;;;;;;4984805;28;20460;-76
2024/02/10 10:36:50;;;;;;;5.57;2.10;;;12.20;99.90;;;;;;4971573;28;20456;-75
2024/02/10 10:39:18;;;;;;;7.27;2.50;;;12.20;99.90;;;;;;4986362;28;20472;-76
2024/02/10 10:41:46;;;;;;;3.37;2.90;;;12.20;99.90;;;;;;5003144;28;20413;-75
2024/02/10 10:44:17;;;;;;;7.80;2.60;;;12.20;99.90;;;;;;4984961;28;20417;-71
2024/02/10 10:46:45;;;;;;;6.53;2.30;;;12.20;99.90;;;;;;4984841;28;20449;-74
2024/02/10 10:49:11;;;;;;;3.90;2.20;;;12.20;99.90;;;;;;4960045;28;21207;-74
2024/02/10 10:51:51;;;;;;;10.67;3.07;;;12.20;99.90;;;;;;5000283;28;20482;-71
2024/02/10 10:54:24;;;;;;;2.90;2.00;;;12.10;99.90;;;;;;4984102;28;20902;-72
2024/02/10 10:56:53;;;;;;;4.97;2.57;;;12.20;99.90;;;;;;4969502;28;20452;-71
2024/02/10 10:59:21;;;;;;;6.87;2.80;;;12.20;99.90;;;;;;4978845;28;20524;-72
2024/02/10 11:01:48;;;;;;;6.80;2.63;;;12.10;99.90;;;;;;4950198;28;20414;-74
2024/02/10 11:04:15;;;;;;;4.90;2.50;;;12.20;99.90;;;;;;4942362;28;20445;-75
2024/02/10 11:06:44;;;;;;;2.90;2.00;;;12.10;99.90;;;;;;4985502;28;20523;-72
2024/02/10 11:09:20;;;;;;;2.37;1.97;;;12.20;99.90;;;;;;4978435;28;20849;-73
2024/02/10 11:11:47;;;;;;;4.20;2.20;;;12.10;99.90;;;;;;4983583;28;20428;-70
2024/02/10 11:14:15;;;;;;;2.40;2.20;;;12.10;99.90;;;;;;4982859;28;20524;-73
2024/02/10 11:16:43;;;;;;;2.60;2.00;;;12.20;99.90;;;;;;4984759;28;20523;-75
2024/02/10 11:19:13;;;;;;;2.73;2.17;;;12.20;99.90;;;;;;4984725;28;20472;-75
2024/02/10 11:21:40;;;;;;;3.73;2.03;;;12.10;99.90;;;;;;4984792;28;20425;-75
2024/02/10 11:24:14;;;;;;;3.77;1.97;;;12.20;99.90;;;;;;4979281;28;21341;-74
2024/02/10 11:26:44;;;;;;;2.20;1.90;;;12.20;99.90;;;;;;4974416;28;20436;-73
2024/02/10 11:29:18;;;;;;;5.30;2.27;;;12.20;99.90;;;;;;4980218;28;20507;-73
2024/02/10 11:31:44;;;;;;;3.57;2.10;;;12.20;99.90;;;;;;4965176;28;20453;-73
2024/02/10 11:34:16;;;;;;;3.80;2.30;;;12.20;99.90;;;;;;4966441;28;20432;-73
2024/02/10 11:36:53;;;;;;;7.00;2.23;;;12.20;99.90;;;;;;4996540;28;21365;-73
2024/02/10 11:39:22;;;;;;;2.53;2.20;;;12.20;99.90;;;;;;4965721;28;20473;-73
2024/02/10 11:41:53;;;;;;;2.47;2.27;;;12.20;99.90;;;;;;4947690;28;20503;-73
2024/02/10 11:44:19;;;;;;;4.00;2.27;;;12.20;99.90;;;;;;4978934;28;20460;-73
2024/02/10 11:46:47;;;;;;;6.60;3.40;;;12.20;99.90;;;;;;4960318;28;20536;-73
2024/02/10 11:49:21;;;;;;;2.60;2.40;;;12.20;99.90;;;;;;4978456;28;20512;-73
2024/02/10 11:51:53;;;;;;;3.60;2.10;;;12.20;99.90;;;;;;4957921;28;20432;-73
2024/02/10 11:54:19;;;;;;;2.40;2.20;;;12.20;99.90;;;;;;4978416;28;20561;-73
2024/02/10 11:56:50;;;;;;;3.40;2.57;;;12.20;99.90;;;;;;4977560;28;20964;-73
2024/02/10 11:59:16;;;;;;;2.50;2.30;;;12.20;99.90;;;;;;4975719;28;20837;-73
2024/02/10 12:01:43;;;;;;;3.00;2.70;;;12.20;99.90;;;;;;4966659;28;20443;-73
2024/02/10 12:04:18;;;;;;;2.80;2.60;;;12.20;99.90;;;;;;4955345;28;20539;-73
2024/02/10 12:06:51;;;;;;;2.67;2.17;;;12.20;99.90;;;;;;4953222;28;20525;-73
2024/02/10 12:09:20;;;;;;;3.27;2.50;;;12.20;99.90;;;;;;4962609;28;20477;-73
2024/02/10 12:11:48;;;;;;;2.30;2.10;;;12.30;99.90;;;;;;4966268;28;20443;-73
2024/02/10 12:14:15;;;;;;;3.67;2.63;;;12.30;99.90;;;;;;4965234;28;20444;-73
2024/02/10 12:16:46;;;;;;;2.33;2.13;;;12.30;99.90;;;;;;4975882;28;20448;-73
2024/02/10 12:19:14;;;;;;;3.57;2.50;;;12.30;99.90;;;;;;4965970;28;20468;-73
2024/02/10 12:21:44;;;;;;;2.70;2.50;;;12.30;99.90;;;;;;4963849;28;20444;-73
2024/02/10 12:24:19;;;;;;;3.40;2.40;;;12.30;99.90;;;;;;4982125;28;20509;-73
2024/02/10 12:26:45;;;;;;;3.03;2.80;;;12.30;99.90;;;;;;4984440;28;20464;-73
2024/02/10 12:29:16;;;;;;;2.57;2.37;;;12.30;99.90;;;;;;5004097;28;20468;-73
2024/02/10 12:31:43;;;;;;;2.30;2.10;;;12.30;99.90;;;;;;5014239;23;21506;-31
2024/02/10 12:34:10;;;;;;;2.50;2.20;;;12.30;99.90;;;;;;5057069;28;20437;-33
2024/02/10 12:36:38;;;;;;;3.10;2.50;;;12.30;99.90;;;;;;5038135;28;20482;-31
2024/02/10 12:39:05;;;;;;;3.30;2.47;;;12.30;99.90;;;;;;5072423;28;20583;-34
2024/02/10 12:41:38;;;;;;;3.00;2.73;;;12.30;99.90;;;;;;5076131;28;20433;-33
2024/02/10 12:44:05;;;;;;;3.60;3.10;;;12.40;99.90;;;;;;5063907;28;20421;-37
2024/02/10 12:46:31;;;;;;;4.37;2.50;;;12.40;99.90;;;;;;5074932;28;20444;-30
2024/02/10 12:48:57;;;;;;;3.67;2.47;;;12.30;99.90;;;;;;5076240;28;20413;-31
2024/02/10 12:51:25;;;;;;;2.93;2.50;;;12.40;99.90;;;;;;5073770;28;20496;-32
2024/02/10 12:53:54;;;;;;;2.90;2.70;;;12.40;99.90;;;;;;5025970;28;20467;-33
2024/02/10 12:56:24;;;;;;;2.67;2.47;;;12.40;99.90;;;;;;5071381;28;21175;-41